This is the latest recevied weather packets stored in our database for station/object G7KXT-10. If no packets are shown the sender has not sent any weather packets the latest 10 day(s).
| Time | Temp. | Humidity | Pressure | Rain* | Wind** | Luminosity | Snow |
|---|---|---|---|---|---|---|---|
| 1788006172 | 24.44° C | 58% | 1004.4 hPa | - | - | - | - |
| 1788005272 | 24.44° C | 58% | 1004.3 hPa | - | - | - | - |
| 1788004371 | 24.44° C | 58% | 1004.5 hPa | - | - | - | - |
| 1788003467 | 24.44° C | 58% | 1004.7 hPa | - | - | - | - |
| 1788002568 | 25° C | 58% | 1004.8 hPa | - | - | - | - |
| 1788001666 | 24.44° C | 58% | 1004.6 hPa | - | - | - | - |
| 1788000766 | 25° C | 57% | 1004.8 hPa | - | - | - | - |
| 1787999866 | 25.56° C | 57% | 1004.8 hPa | - | - | - | - |
| 1787998966 | 25.56° C | 56% | 1005 hPa | - | - | - | - |
| 1787998065 | 25.56° C | 58% | 1004.8 hPa | - | - | - | - |
| 1787997165 | 25° C | 59% | 1004.9 hPa | - | - | - | - |
| 1787996265 | 25° C | 59% | 1004.9 hPa | - | - | - | - |
| 1787995364 | 25.56° C | 57% | 1004.7 hPa | - | - | - | - |
| 1787991997 | 36.11° C | 43% | 1004.1 hPa | - | - | - | - |
| 1787991097 | 38.89° C | 41% | 1004.1 hPa | - | - | - | - |
| 1787990196 | 34.44° C | 48% | 1004.4 hPa | - | - | - | - |
| 1787989295 | 22.22° C | 65% | 1004.3 hPa | - | - | - | - |
| 1787952965 | 21.67° C | 71% | 1002.7 hPa | - | - | - | - |
| 1787952065 | 21.67° C | 71% | 1002.6 hPa | - | - | - | - |
| 1787951164 | 21.67° C | 71% | 1002.3 hPa | - | - | - | - |
| 1787950264 | 21.67° C | 71% | 1002.3 hPa | - | - | - | - |
| 1787949364 | 22.22° C | 70% | 1002.1 hPa | - | - | - | - |
| 1787948463 | 22.22° C | 69% | 1002.3 hPa | - | - | - | - |
| 1787947562 | 22.78° C | 68% | 1002.1 hPa | - | - | - | - |
| 1787946662 | 22.78° C | 68% | 1002 hPa | - | - | - | - |
* Rain since midnight (hover to see other rain measurements)
** Current wind speed in m/s (hover to see current wind gust speed)